windsock image

Welcome to Bigfield Strip.

anemometer image
     

 Help for dials.  
 
Local Met:

Wind:   
10 Min average:  
232 ° / 1.8 kts (0.9)
230° / 4.6

Temperature:  
12.4°C C
Dew Point:  
10.6°C C
QNH:  
Trend:  
1023.5 mb mb
-0.3mb/hr
BigField Strip. This image updates approximately every minute, it can have a two minute delay.  
 

Humidity:  
89 %
Sunrise:   07:56z
Sunset:   15:53z
Updated:  
  UTC
 
   More met info, trends, radar, history etc. available here   

LUTON Metar   EGGW 071350Z AUTO 18007KT 150V210 9999 NCD 11/10 Q1024
 
  TAF   2016/12/07 22:56 TAF AMD EGGW 062250Z 0622/0718 20008KT 1700 BR OVC002 BECMG 0623/0702 0300 FG OVC001 TEMPO 0703/0708 2000 BR SCT002 BECMG 0708/0711 6000 NSW BKN006 BECMG 0711/0714 SCT008 PROB30 0712/0718 9999 TEMPO 0714/0718 BKN008
 
BENSON Metar   EGUB 071350Z 18013KT CAVOK 13/10 Q1024 BLU NOSIG
 
  TAF   2016/12/07 15:03 TAF TAF EGUB 071351Z 0715/0724 18014KT CAVOK PROB30 TEMPO 0718/0724 SCT010
 
Big Field view 1 icon   Big Field view 2 icon   Big Field view 3 icon   Chart AL3a in PDF icon   Chart AL3a in Word icon

WARNING:
This information is provided by the Airstrip unofficial weather station, DO NOT depend on the data provided here for any purpose.
This page is updated for latest Metars & TAF's every 5 minutes. Refresh the browser to check for the lastest.
Page designed for a minimum browser size of 1024x768.
© Copyright 2016 BigField Strip. This page auto generated 14:21 UTC - 07/12/2016   Contact Us
Valid HTML 4.01 Transitional     Windows uptime: 2 Days 11 Hours 49 Minutes 32 Seconds    WD started: 02:37 05/12/16    Free memory: 1461MB     Valid CSS!